Aeroporto :
LOGIN :

Iscrizione | Disclaimer

   EN    FR    IT 

 










Sommario :    VFR   VFR Marginale   IFR   IFR Intensivo   IFR Molto Intensivo
Visibilità : 
Base nubi : 
>= 8 km
>= 3000ft
5 / 8 km
1000 / 3000 ft
1500m / 5 km
500 / 1000 ft
800 / 1500m
200 / 500 ft
< 800m
< 200 ft
Simboli :   Temporali  Nebbia  Neve Forte  Precipitazioni Forti  Vento > 20 kt
SIGMETs :   Varie  Temporali  Ghiacco  Turbolenza  Onda orograficha  Ceneri Vulcaniche







- Altitudine del aeroporto : 218 ft


EGYD - RAF Cranwell

ULTIMO METAR :
  • 191750Z AUTO 28010KT 9999 // SCT050/// 19/08 Q1013

METARs OBSOLETI :
  • 191650Z AUTO 28007KT 9999 // BKN050/// 18/11 Q1013
  • 191620Z 27008KT 9999 SCT048 18/11 Q1013 RMK BLU
  • 191550Z 28007KT 9999 FEW038CB SCT050 BKN060 16/11 Q1013 TEMPO 6000 SHRA RMK BLU TEMPO WHT
  • 191520Z 28014KT 9999 -SHRA FEW040CB BKN050 18/10 Q1013 TEMPO 6000 SHRA RMK BLU TEMPO WHT

Previsioni scadute.
Nessun NOTAM noto per questo aeroporto.



MetMap, La meteo Aeronautica in un colpo d'occhio ! - Copyright ORBIFLY Dicembre 2007 - Disclaimer

ORBIFLY MET'MAP TEAM :

Programmazione e sviluppo : Alexandra Zaïnal
Concezione e sviluppo : Baudouin d'Aumeries
Co-Programmazione e sviluppo : Marc-Olivier Méhu
Supporto tecnico e logistico : Manuel Goepfert
Aiuto per la traduzione : Arnaldo La Scala

Contatto : metmap@orbifly.com




FONTI E CREDITI :

   NOAA